sensor_id;sensor_type;location;lat;lon;timestamp;temperature;humidity
16408;DHT22;8313;49.894;8.084;2024-01-30T00:01:36;4.10;99.90
16408;DHT22;8313;49.894;8.084;2024-01-30T00:04:02;4.20;99.90
16408;DHT22;8313;49.894;8.084;2024-01-30T00:06:28;4.20;99.90
16408;DHT22;8313;49.894;8.084;2024-01-30T00:08:53;4.20;99.90
16408;DHT22;8313;49.894;8.084;2024-01-30T00:11:19;4.10;99.90
16408;DHT22;8313;49.894;8.084;2024-01-30T00:13:45;4.10;99.90
16408;DHT22;8313;49.894;8.084;2024-01-30T00:16:24;4.10;99.90
16408;DHT22;8313;49.894;8.084;2024-01-30T00:18:53;4.10;99.90
16408;DHT22;8313;49.894;8.084;2024-01-30T00:21:19;4.10;99.90
16408;DHT22;8313;49.894;8.084;2024-01-30T00:23:45;4.10;99.90
16408;DHT22;8313;49.894;8.084;2024-01-30T00:26:11;4.10;99.90
16408;DHT22;8313;49.894;8.084;2024-01-30T00:28:40;4.10;99.90
16408;DHT22;8313;49.894;8.084;2024-01-30T00:31:06;4.00;99.90
16408;DHT22;8313;49.894;8.084;2024-01-30T00:33:32;4.00;99.90
16408;DHT22;8313;49.894;8.084;2024-01-30T00:35:58;4.00;99.90
16408;DHT22;8313;49.894;8.084;2024-01-30T00:38:23;4.00;99.90
16408;DHT22;8313;49.894;8.084;2024-01-30T00:40:49;4.00;99.90
16408;DHT22;8313;49.894;8.084;2024-01-30T00:43:15;4.00;99.90
16408;DHT22;8313;49.894;8.084;2024-01-30T00:45:41;4.00;99.90
16408;DHT22;8313;49.894;8.084;2024-01-30T00:48:07;4.00;99.90
16408;DHT22;8313;49.894;8.084;2024-01-30T00:50:32;3.90;99.90
16408;DHT22;8313;49.894;8.084;2024-01-30T00:52:58;3.90;99.90
16408;DHT22;8313;49.894;8.084;2024-01-30T00:55:24;3.90;99.90
16408;DHT22;8313;49.894;8.084;2024-01-30T00:57:49;3.90;99.90
16408;DHT22;8313;49.894;8.084;2024-01-30T01:00:15;3.90;99.90
16408;DHT22;8313;49.894;8.084;2024-01-30T01:02:44;3.90;99.90
16408;DHT22;8313;49.894;8.084;2024-01-30T01:05:10;3.90;99.90
16408;DHT22;8313;49.894;8.084;2024-01-30T01:07:36;3.90;99.90
16408;DHT22;8313;49.894;8.084;2024-01-30T01:10:02;3.90;99.90
16408;DHT22;8313;49.894;8.084;2024-01-30T01:12:28;3.90;99.90
16408;DHT22;8313;49.894;8.084;2024-01-30T01:14:53;3.90;99.90
16408;DHT22;8313;49.894;8.084;2024-01-30T01:17:19;3.90;99.90
16408;DHT22;8313;49.894;8.084;2024-01-30T01:19:45;3.90;99.90
16408;DHT22;8313;49.894;8.084;2024-01-30T01:22:11;3.80;99.90
16408;DHT22;8313;49.894;8.084;2024-01-30T01:24:37;3.80;99.90
16408;DHT22;8313;49.894;8.084;2024-01-30T01:27:03;3.70;99.90
16408;DHT22;8313;49.894;8.084;2024-01-30T01:29:28;3.70;99.90
16408;DHT22;8313;49.894;8.084;2024-01-30T01:32:00;3.70;99.90
16408;DHT22;8313;49.894;8.084;2024-01-30T01:34:26;3.80;99.90
16408;DHT22;8313;49.894;8.084;2024-01-30T01:36:51;3.80;99.90
16408;DHT22;8313;49.894;8.084;2024-01-30T01:39:21;3.80;99.90
16408;DHT22;8313;49.894;8.084;2024-01-30T01:41:48;3.80;99.90
16408;DHT22;8313;49.894;8.084;2024-01-30T01:44:13;3.80;99.90
16408;DHT22;8313;49.894;8.084;2024-01-30T01:46:39;3.80;99.90
16408;DHT22;8313;49.894;8.084;2024-01-30T01:49:05;3.80;99.90
16408;DHT22;8313;49.894;8.084;2024-01-30T01:51:34;3.70;99.90
16408;DHT22;8313;49.894;8.084;2024-01-30T01:54:03;3.70;99.90
16408;DHT22;8313;49.894;8.084;2024-01-30T01:56:30;3.70;99.90
16408;DHT22;8313;49.894;8.084;2024-01-30T01:59:00;3.70;99.90
16408;DHT22;8313;49.894;8.084;2024-01-30T02:01:27;3.70;99.90
16408;DHT22;8313;49.894;8.084;2024-01-30T02:03:54;3.70;99.90
16408;DHT22;8313;49.894;8.084;2024-01-30T02:06:20;3.70;99.90
16408;DHT22;8313;49.894;8.084;2024-01-30T02:08:45;3.70;99.90
16408;DHT22;8313;49.894;8.084;2024-01-30T02:11:11;3.70;99.90
16408;DHT22;8313;49.894;8.084;2024-01-30T02:13:37;3.60;99.90
16408;DHT22;8313;49.894;8.084;2024-01-30T02:16:03;3.60;99.90
16408;DHT22;8313;49.894;8.084;2024-01-30T02:18:28;3.60;99.90
16408;DHT22;8313;49.894;8.084;2024-01-30T02:20:56;3.60;99.90
16408;DHT22;8313;49.894;8.084;2024-01-30T02:23:24;3.60;99.90
16408;DHT22;8313;49.894;8.084;2024-01-30T02:25:50;3.50;99.90
16408;DHT22;8313;49.894;8.084;2024-01-30T02:28:19;3.50;99.90
16408;DHT22;8313;49.894;8.084;2024-01-30T02:30:45;3.50;99.90
16408;DHT22;8313;49.894;8.084;2024-01-30T02:33:11;3.50;99.90
16408;DHT22;8313;49.894;8.084;2024-01-30T02:35:37;3.50;99.90
16408;DHT22;8313;49.894;8.084;2024-01-30T02:38:03;3.50;99.90
16408;DHT22;8313;49.894;8.084;2024-01-30T02:40:28;3.50;99.90
16408;DHT22;8313;49.894;8.084;2024-01-30T02:42:54;3.50;99.90
16408;DHT22;8313;49.894;8.084;2024-01-30T02:45:20;3.50;99.90
16408;DHT22;8313;49.894;8.084;2024-01-30T02:47:46;3.50;99.90
16408;DHT22;8313;49.894;8.084;2024-01-30T02:50:11;3.50;99.90
16408;DHT22;8313;49.894;8.084;2024-01-30T02:52:37;3.50;99.90
16408;DHT22;8313;49.894;8.084;2024-01-30T02:55:03;3.50;99.90
16408;DHT22;8313;49.894;8.084;2024-01-30T02:57:29;3.50;99.90
16408;DHT22;8313;49.894;8.084;2024-01-30T02:59:55;3.50;99.90
16408;DHT22;8313;49.894;8.084;2024-01-30T03:02:20;3.50;99.90
16408;DHT22;8313;49.894;8.084;2024-01-30T03:04:46;3.50;99.90
16408;DHT22;8313;49.894;8.084;2024-01-30T03:07:12;3.50;99.90
16408;DHT22;8313;49.894;8.084;2024-01-30T03:09:38;3.50;99.90
16408;DHT22;8313;49.894;8.084;2024-01-30T03:12:04;3.50;99.90
16408;DHT22;8313;49.894;8.084;2024-01-30T03:14:31;3.50;99.90
16408;DHT22;8313;49.894;8.084;2024-01-30T03:16:57;3.50;99.90
16408;DHT22;8313;49.894;8.084;2024-01-30T03:19:23;3.50;99.90
16408;DHT22;8313;49.894;8.084;2024-01-30T03:21:49;3.50;99.90
16408;DHT22;8313;49.894;8.084;2024-01-30T03:24:15;3.40;99.90
16408;DHT22;8313;49.894;8.084;2024-01-30T03:26:40;3.40;99.90
16408;DHT22;8313;49.894;8.084;2024-01-30T03:29:06;3.40;99.90
16408;DHT22;8313;49.894;8.084;2024-01-30T03:31:31;3.40;99.90
16408;DHT22;8313;49.894;8.084;2024-01-30T03:33:57;3.50;99.90
16408;DHT22;8313;49.894;8.084;2024-01-30T03:36:23;3.40;99.90
16408;DHT22;8313;49.894;8.084;2024-01-30T03:38:49;3.40;99.90
16408;DHT22;8313;49.894;8.084;2024-01-30T03:41:14;3.40;99.90
16408;DHT22;8313;49.894;8.084;2024-01-30T03:43:40;3.40;99.90
16408;DHT22;8313;49.894;8.084;2024-01-30T03:46:06;3.40;99.90
16408;DHT22;8313;49.894;8.084;2024-01-30T03:48:32;3.40;99.90
16408;DHT22;8313;49.894;8.084;2024-01-30T03:50:57;3.40;99.90
16408;DHT22;8313;49.894;8.084;2024-01-30T03:53:23;3.40;99.90
16408;DHT22;8313;49.894;8.084;2024-01-30T03:55:49;3.40;99.90
16408;DHT22;8313;49.894;8.084;2024-01-30T03:58:15;3.40;99.90
16408;DHT22;8313;49.894;8.084;2024-01-30T04:00:40;3.40;99.90
16408;DHT22;8313;49.894;8.084;2024-01-30T04:03:06;3.40;99.90
16408;DHT22;8313;49.894;8.084;2024-01-30T04:05:32;3.40;99.90
16408;DHT22;8313;49.894;8.084;2024-01-30T04:07:58;3.40;99.90
16408;DHT22;8313;49.894;8.084;2024-01-30T04:10:24;3.30;99.90
16408;DHT22;8313;49.894;8.084;2024-01-30T04:12:50;3.30;99.90
16408;DHT22;8313;49.894;8.084;2024-01-30T04:15:17;3.30;99.90
16408;DHT22;8313;49.894;8.084;2024-01-30T04:17:43;3.30;99.90
16408;DHT22;8313;49.894;8.084;2024-01-30T04:20:14;3.30;99.90
16408;DHT22;8313;49.894;8.084;2024-01-30T04:22:42;3.30;99.90
16408;DHT22;8313;49.894;8.084;2024-01-30T04:25:08;3.30;99.90
16408;DHT22;8313;49.894;8.084;2024-01-30T04:27:33;3.30;99.90
16408;DHT22;8313;49.894;8.084;2024-01-30T04:29:59;3.30;99.90
16408;DHT22;8313;49.894;8.084;2024-01-30T04:32:25;3.20;99.90
16408;DHT22;8313;49.894;8.084;2024-01-30T04:34:50;3.20;99.90
16408;DHT22;8313;49.894;8.084;2024-01-30T04:37:16;3.20;99.90
16408;DHT22;8313;49.894;8.084;2024-01-30T04:39:42;3.20;99.90
16408;DHT22;8313;49.894;8.084;2024-01-30T04:42:08;3.20;99.90
16408;DHT22;8313;49.894;8.084;2024-01-30T04:44:34;3.20;99.90
16408;DHT22;8313;49.894;8.084;2024-01-30T04:46:59;3.20;99.90
16408;DHT22;8313;49.894;8.084;2024-01-30T04:49:27;3.20;99.90
16408;DHT22;8313;49.894;8.084;2024-01-30T04:51:53;3.20;99.90
16408;DHT22;8313;49.894;8.084;2024-01-30T04:54:18;3.20;99.90
16408;DHT22;8313;49.894;8.084;2024-01-30T04:56:44;3.20;99.90
16408;DHT22;8313;49.894;8.084;2024-01-30T04:59:09;3.20;99.90
16408;DHT22;8313;49.894;8.084;2024-01-30T05:01:35;3.20;99.90
16408;DHT22;8313;49.894;8.084;2024-01-30T05:04:01;3.20;99.90
16408;DHT22;8313;49.894;8.084;2024-01-30T05:06:27;3.10;99.90
16408;DHT22;8313;49.894;8.084;2024-01-30T05:08:53;3.10;99.90
16408;DHT22;8313;49.894;8.084;2024-01-30T05:11:19;3.10;99.90
16408;DHT22;8313;49.894;8.084;2024-01-30T05:13:45;3.10;99.90
16408;DHT22;8313;49.894;8.084;2024-01-30T05:16:10;3.10;99.90
16408;DHT22;8313;49.894;8.084;2024-01-30T05:18:36;3.10;99.90
16408;DHT22;8313;49.894;8.084;2024-01-30T05:21:05;3.10;99.90
16408;DHT22;8313;49.894;8.084;2024-01-30T05:23:31;3.10;99.90
16408;DHT22;8313;49.894;8.084;2024-01-30T05:25:56;3.10;99.90
16408;DHT22;8313;49.894;8.084;2024-01-30T05:28:22;3.10;99.90
16408;DHT22;8313;49.894;8.084;2024-01-30T05:30:48;3.10;99.90
16408;DHT22;8313;49.894;8.084;2024-01-30T05:33:13;3.10;99.90
16408;DHT22;8313;49.894;8.084;2024-01-30T05:35:39;3.10;99.90
16408;DHT22;8313;49.894;8.084;2024-01-30T05:38:05;3.00;99.90
16408;DHT22;8313;49.894;8.084;2024-01-30T05:40:30;3.00;99.90
16408;DHT22;8313;49.894;8.084;2024-01-30T05:42:57;3.00;99.90
16408;DHT22;8313;49.894;8.084;2024-01-30T05:45:26;3.00;99.90
16408;DHT22;8313;49.894;8.084;2024-01-30T05:47:52;3.00;99.90
16408;DHT22;8313;49.894;8.084;2024-01-30T05:50:19;3.00;99.90
16408;DHT22;8313;49.894;8.084;2024-01-30T05:52:45;3.00;99.90
16408;DHT22;8313;49.894;8.084;2024-01-30T05:55:11;3.00;99.90
16408;DHT22;8313;49.894;8.084;2024-01-30T05:57:37;3.00;99.90
16408;DHT22;8313;49.894;8.084;2024-01-30T06:00:04;2.90;99.90
16408;DHT22;8313;49.894;8.084;2024-01-30T06:02:32;2.90;99.90
16408;DHT22;8313;49.894;8.084;2024-01-30T06:04:58;3.00;99.90
16408;DHT22;8313;49.894;8.084;2024-01-30T06:07:24;3.00;99.90
16408;DHT22;8313;49.894;8.084;2024-01-30T06:09:49;3.00;99.90
16408;DHT22;8313;49.894;8.084;2024-01-30T06:12:15;2.90;99.90
16408;DHT22;8313;49.894;8.084;2024-01-30T06:14:41;2.90;99.90
16408;DHT22;8313;49.894;8.084;2024-01-30T06:17:10;3.00;99.90
16408;DHT22;8313;49.894;8.084;2024-01-30T06:19:40;3.00;99.90
16408;DHT22;8313;49.894;8.084;2024-01-30T06:22:06;2.90;99.90
16408;DHT22;8313;49.894;8.084;2024-01-30T06:24:32;2.90;99.90
16408;DHT22;8313;49.894;8.084;2024-01-30T06:26:59;2.90;99.90
16408;DHT22;8313;49.894;8.084;2024-01-30T06:29:24;2.90;99.90
16408;DHT22;8313;49.894;8.084;2024-01-30T06:31:52;2.90;99.90
16408;DHT22;8313;49.894;8.084;2024-01-30T06:34:17;2.90;99.90
16408;DHT22;8313;49.894;8.084;2024-01-30T06:36:43;2.90;99.90
16408;DHT22;8313;49.894;8.084;2024-01-30T06:39:09;2.90;99.90
16408;DHT22;8313;49.894;8.084;2024-01-30T06:41:34;2.90;99.90
16408;DHT22;8313;49.894;8.084;2024-01-30T06:44:02;2.90;99.90
16408;DHT22;8313;49.894;8.084;2024-01-30T06:46:29;2.90;99.90
16408;DHT22;8313;49.894;8.084;2024-01-30T06:48:55;2.90;99.90
16408;DHT22;8313;49.894;8.084;2024-01-30T06:51:20;2.90;99.90
16408;DHT22;8313;49.894;8.084;2024-01-30T06:53:46;2.90;99.90
16408;DHT22;8313;49.894;8.084;2024-01-30T06:56:12;2.90;99.90
16408;DHT22;8313;49.894;8.084;2024-01-30T06:58:37;2.90;99.90
16408;DHT22;8313;49.894;8.084;2024-01-30T07:01:04;2.90;99.90
16408;DHT22;8313;49.894;8.084;2024-01-30T07:03:29;2.90;99.90
16408;DHT22;8313;49.894;8.084;2024-01-30T07:05:55;2.80;99.90
16408;DHT22;8313;49.894;8.084;2024-01-30T07:08:21;2.80;99.90
16408;DHT22;8313;49.894;8.084;2024-01-30T07:10:47;2.80;99.90
16408;DHT22;8313;49.894;8.084;2024-01-30T07:13:13;2.80;99.90
16408;DHT22;8313;49.894;8.084;2024-01-30T07:15:42;2.80;99.90
16408;DHT22;8313;49.894;8.084;2024-01-30T07:18:07;2.80;99.90
16408;DHT22;8313;49.894;8.084;2024-01-30T07:20:35;2.80;99.90
16408;DHT22;8313;49.894;8.084;2024-01-30T07:23:01;2.90;99.90
16408;DHT22;8313;49.894;8.084;2024-01-30T07:25:27;2.90;99.90
16408;DHT22;8313;49.894;8.084;2024-01-30T07:27:54;2.90;99.90
16408;DHT22;8313;49.894;8.084;2024-01-30T07:30:20;2.90;99.90
16408;DHT22;8313;49.894;8.084;2024-01-30T07:32:46;2.90;99.90
16408;DHT22;8313;49.894;8.084;2024-01-30T07:35:13;2.90;99.90
16408;DHT22;8313;49.894;8.084;2024-01-30T07:37:39;2.90;99.90
16408;DHT22;8313;49.894;8.084;2024-01-30T07:40:05;2.90;99.90
16408;DHT22;8313;49.894;8.084;2024-01-30T07:42:32;2.90;99.90
16408;DHT22;8313;49.894;8.084;2024-01-30T07:44:58;2.90;99.90
16408;DHT22;8313;49.894;8.084;2024-01-30T07:47:23;2.90;99.90
16408;DHT22;8313;49.894;8.084;2024-01-30T07:49:49;2.90;99.90
16408;DHT22;8313;49.894;8.084;2024-01-30T07:52:15;2.90;99.90
16408;DHT22;8313;49.894;8.084;2024-01-30T07:54:41;2.90;99.90
16408;DHT22;8313;49.894;8.084;2024-01-30T07:57:07;2.80;99.90
16408;DHT22;8313;49.894;8.084;2024-01-30T07:59:32;2.80;99.90
16408;DHT22;8313;49.894;8.084;2024-01-30T08:01:58;2.80;99.90
16408;DHT22;8313;49.894;8.084;2024-01-30T08:04:24;2.80;99.90
16408;DHT22;8313;49.894;8.084;2024-01-30T08:06:49;2.80;99.90
16408;DHT22;8313;49.894;8.084;2024-01-30T08:09:15;2.90;99.90
16408;DHT22;8313;49.894;8.084;2024-01-30T08:11:41;2.90;99.90
16408;DHT22;8313;49.894;8.084;2024-01-30T08:14:06;2.90;99.90
16408;DHT22;8313;49.894;8.084;2024-01-30T08:16:32;2.90;99.90
16408;DHT22;8313;49.894;8.084;2024-01-30T08:18:58;2.90;99.90
16408;DHT22;8313;49.894;8.084;2024-01-30T08:21:24;2.90;99.90
16408;DHT22;8313;49.894;8.084;2024-01-30T08:23:49;2.90;99.90
16408;DHT22;8313;49.894;8.084;2024-01-30T08:26:15;2.90;99.90
16408;DHT22;8313;49.894;8.084;2024-01-30T08:28:41;2.90;99.90
16408;DHT22;8313;49.894;8.084;2024-01-30T08:31:06;2.90;99.90
16408;DHT22;8313;49.894;8.084;2024-01-30T08:33:32;2.90;99.90
16408;DHT22;8313;49.894;8.084;2024-01-30T08:35:58;2.90;99.90
16408;DHT22;8313;49.894;8.084;2024-01-30T08:38:23;2.90;99.90
16408;DHT22;8313;49.894;8.084;2024-01-30T08:40:49;2.90;99.90
16408;DHT22;8313;49.894;8.084;2024-01-30T08:43:15;2.90;99.90
16408;DHT22;8313;49.894;8.084;2024-01-30T08:45:40;3.00;99.90
16408;DHT22;8313;49.894;8.084;2024-01-30T08:48:07;3.00;99.90
16408;DHT22;8313;49.894;8.084;2024-01-30T08:50:33;3.00;99.90
16408;DHT22;8313;49.894;8.084;2024-01-30T08:52:59;3.00;99.90
16408;DHT22;8313;49.894;8.084;2024-01-30T08:55:24;3.00;99.90
16408;DHT22;8313;49.894;8.084;2024-01-30T08:57:50;3.00;99.90
16408;DHT22;8313;49.894;8.084;2024-01-30T09:00:17;3.00;99.90
16408;DHT22;8313;49.894;8.084;2024-01-30T09:02:43;3.00;99.90
16408;DHT22;8313;49.894;8.084;2024-01-30T09:05:09;3.00;99.90
16408;DHT22;8313;49.894;8.084;2024-01-30T09:07:34;3.10;99.90
16408;DHT22;8313;49.894;8.084;2024-01-30T09:10:00;3.10;99.90
16408;DHT22;8313;49.894;8.084;2024-01-30T09:12:26;3.10;99.90
16408;DHT22;8313;49.894;8.084;2024-01-30T09:14:51;3.10;99.90
16408;DHT22;8313;49.894;8.084;2024-01-30T09:17:17;3.10;99.90
16408;DHT22;8313;49.894;8.084;2024-01-30T09:19:43;3.10;99.90
16408;DHT22;8313;49.894;8.084;2024-01-30T09:22:08;3.20;99.90
16408;DHT22;8313;49.894;8.084;2024-01-30T09:24:34;3.20;99.90
16408;DHT22;8313;49.894;8.084;2024-01-30T09:27:00;3.20;99.90
16408;DHT22;8313;49.894;8.084;2024-01-30T09:29:26;3.20;99.90
16408;DHT22;8313;49.894;8.084;2024-01-30T09:31:51;3.20;99.90
16408;DHT22;8313;49.894;8.084;2024-01-30T09:34:17;3.20;99.90
16408;DHT22;8313;49.894;8.084;2024-01-30T09:36:43;3.20;99.90
16408;DHT22;8313;49.894;8.084;2024-01-30T09:39:08;3.20;99.90
16408;DHT22;8313;49.894;8.084;2024-01-30T09:41:44;3.30;99.90
16408;DHT22;8313;49.894;8.084;2024-01-30T09:44:12;3.30;99.90
16408;DHT22;8313;49.894;8.084;2024-01-30T09:46:39;3.30;99.90
16408;DHT22;8313;49.894;8.084;2024-01-30T09:49:06;3.30;99.90
16408;DHT22;8313;49.894;8.084;2024-01-30T09:51:34;3.30;99.90
16408;DHT22;8313;49.894;8.084;2024-01-30T09:54:00;3.30;99.90
16408;DHT22;8313;49.894;8.084;2024-01-30T09:56:25;3.30;99.90
16408;DHT22;8313;49.894;8.084;2024-01-30T09:58:51;3.30;99.90
16408;DHT22;8313;49.894;8.084;2024-01-30T10:01:17;3.30;99.90
16408;DHT22;8313;49.894;8.084;2024-01-30T10:03:44;3.40;99.90
16408;DHT22;8313;49.894;8.084;2024-01-30T10:06:11;3.40;99.90
16408;DHT22;8313;49.894;8.084;2024-01-30T10:08:37;3.30;99.90
16408;DHT22;8313;49.894;8.084;2024-01-30T10:11:03;3.30;99.90
16408;DHT22;8313;49.894;8.084;2024-01-30T10:13:29;3.40;99.90
16408;DHT22;8313;49.894;8.084;2024-01-30T10:15:55;3.40;99.90
16408;DHT22;8313;49.894;8.084;2024-01-30T10:18:22;3.40;99.90
16408;DHT22;8313;49.894;8.084;2024-01-30T10:20:49;3.50;99.90
16408;DHT22;8313;49.894;8.084;2024-01-30T10:23:14;3.50;99.90
16408;DHT22;8313;49.894;8.084;2024-01-30T10:25:40;3.50;99.90
16408;DHT22;8313;49.894;8.084;2024-01-30T10:28:06;3.50;99.90
16408;DHT22;8313;49.894;8.084;2024-01-30T10:30:31;3.50;99.90
16408;DHT22;8313;49.894;8.084;2024-01-30T10:32:57;3.50;99.90
16408;DHT22;8313;49.894;8.084;2024-01-30T10:35:23;3.60;99.90
16408;DHT22;8313;49.894;8.084;2024-01-30T10:37:49;3.60;99.90
16408;DHT22;8313;49.894;8.084;2024-01-30T10:40:15;3.60;99.90
16408;DHT22;8313;49.894;8.084;2024-01-30T10:42:45;3.70;99.90
16408;DHT22;8313;49.894;8.084;2024-01-30T10:45:14;3.70;99.90
16408;DHT22;8313;49.894;8.084;2024-01-30T10:47:49;3.70;99.90
16408;DHT22;8313;49.894;8.084;2024-01-30T10:50:15;3.70;99.90
16408;DHT22;8313;49.894;8.084;2024-01-30T10:52:41;3.70;99.90
16408;DHT22;8313;49.894;8.084;2024-01-30T10:55:08;3.80;99.90
16408;DHT22;8313;49.894;8.084;2024-01-30T10:57:37;3.80;99.90
16408;DHT22;8313;49.894;8.084;2024-01-30T11:00:08;3.90;99.90
16408;DHT22;8313;49.894;8.084;2024-01-30T11:02:41;4.00;99.90
16408;DHT22;8313;49.894;8.084;2024-01-30T11:05:08;4.00;99.90
16408;DHT22;8313;49.894;8.084;2024-01-30T11:07:34;4.00;99.90
16408;DHT22;8313;49.894;8.084;2024-01-30T11:12:30;4.00;99.90
16408;DHT22;8313;49.894;8.084;2024-01-30T11:15:07;4.10;99.90
16408;DHT22;8313;49.894;8.084;2024-01-30T11:20:27;4.10;99.90
16408;DHT22;8313;49.894;8.084;2024-01-30T11:22:57;4.20;99.90
16408;DHT22;8313;49.894;8.084;2024-01-30T11:25:23;4.10;99.90
16408;DHT22;8313;49.894;8.084;2024-01-30T11:27:51;4.20;99.90
16408;DHT22;8313;49.894;8.084;2024-01-30T11:30:31;4.20;99.90
16408;DHT22;8313;49.894;8.084;2024-01-30T11:33:12;4.20;99.90
16408;DHT22;8313;49.894;8.084;2024-01-30T11:35:38;4.30;99.90
16408;DHT22;8313;49.894;8.084;2024-01-30T11:38:11;4.30;99.90
16408;DHT22;8313;49.894;8.084;2024-01-30T11:40:39;4.30;99.90
16408;DHT22;8313;49.894;8.084;2024-01-30T11:43:07;4.30;99.90
16408;DHT22;8313;49.894;8.084;2024-01-30T11:45:33;4.30;99.90
16408;DHT22;8313;49.894;8.084;2024-01-30T11:47:59;4.40;99.90
16408;DHT22;8313;49.894;8.084;2024-01-30T11:50:27;4.40;99.90
16408;DHT22;8313;49.894;8.084;2024-01-30T11:52:54;4.50;99.90
16408;DHT22;8313;49.894;8.084;2024-01-30T11:55:21;4.50;99.90
16408;DHT22;8313;49.894;8.084;2024-01-30T11:57:47;4.50;99.90
16408;DHT22;8313;49.894;8.084;2024-01-30T12:00:17;4.60;99.90
16408;DHT22;8313;49.894;8.084;2024-01-30T12:02:44;4.60;99.90
16408;DHT22;8313;49.894;8.084;2024-01-30T12:05:10;4.70;99.90
16408;DHT22;8313;49.894;8.084;2024-01-30T12:07:36;4.70;99.90
16408;DHT22;8313;49.894;8.084;2024-01-30T12:10:02;4.70;99.90
16408;DHT22;8313;49.894;8.084;2024-01-30T12:12:29;4.80;99.90
16408;DHT22;8313;49.894;8.084;2024-01-30T12:14:56;4.90;99.90
16408;DHT22;8313;49.894;8.084;2024-01-30T12:17:30;5.00;99.90
16408;DHT22;8313;49.894;8.084;2024-01-30T12:20:14;5.00;99.90
16408;DHT22;8313;49.894;8.084;2024-01-30T12:22:42;5.00;99.90
16408;DHT22;8313;49.894;8.084;2024-01-30T12:25:09;4.90;99.90
16408;DHT22;8313;49.894;8.084;2024-01-30T12:27:35;5.00;99.90
16408;DHT22;8313;49.894;8.084;2024-01-30T12:30:04;5.00;99.90
16408;DHT22;8313;49.894;8.084;2024-01-30T12:32:30;5.10;99.90
16408;DHT22;8313;49.894;8.084;2024-01-30T12:34:56;5.10;99.90
16408;DHT22;8313;49.894;8.084;2024-01-30T12:37:22;5.10;99.90
16408;DHT22;8313;49.894;8.084;2024-01-30T12:39:53;5.10;99.90
16408;DHT22;8313;49.894;8.084;2024-01-30T12:42:20;5.10;99.90
16408;DHT22;8313;49.894;8.084;2024-01-30T12:44:47;5.20;99.90
16408;DHT22;8313;49.894;8.084;2024-01-30T12:47:13;5.20;99.90
16408;DHT22;8313;49.894;8.084;2024-01-30T12:49:44;5.30;99.90
16408;DHT22;8313;49.894;8.084;2024-01-30T12:52:15;5.30;99.90
16408;DHT22;8313;49.894;8.084;2024-01-30T12:54:41;5.30;99.90
16408;DHT22;8313;49.894;8.084;2024-01-30T12:57:07;5.40;99.90
16408;DHT22;8313;49.894;8.084;2024-01-30T12:59:33;5.40;99.90
16408;DHT22;8313;49.894;8.084;2024-01-30T13:02:00;5.40;99.90
16408;DHT22;8313;49.894;8.084;2024-01-30T13:04:27;5.40;99.90
16408;DHT22;8313;49.894;8.084;2024-01-30T13:06:53;5.40;99.90
16408;DHT22;8313;49.894;8.084;2024-01-30T13:09:18;5.40;99.90
16408;DHT22;8313;49.894;8.084;2024-01-30T13:11:44;5.50;99.90
16408;DHT22;8313;49.894;8.084;2024-01-30T13:14:10;5.50;99.90
16408;DHT22;8313;49.894;8.084;2024-01-30T13:16:35;5.50;99.90
16408;DHT22;8313;49.894;8.084;2024-01-30T13:19:01;5.50;99.90
16408;DHT22;8313;49.894;8.084;2024-01-30T13:21:27;5.60;99.90
16408;DHT22;8313;49.894;8.084;2024-01-30T13:23:53;5.60;99.90
16408;DHT22;8313;49.894;8.084;2024-01-30T13:26:20;5.70;99.90
16408;DHT22;8313;49.894;8.084;2024-01-30T13:28:46;5.70;99.90
16408;DHT22;8313;49.894;8.084;2024-01-30T13:31:13;5.70;99.90
16408;DHT22;8313;49.894;8.084;2024-01-30T13:33:40;5.70;99.90
16408;DHT22;8313;49.894;8.084;2024-01-30T13:36:07;5.80;99.90
16408;DHT22;8313;49.894;8.084;2024-01-30T13:38:33;5.80;99.90
16408;DHT22;8313;49.894;8.084;2024-01-30T13:40:59;5.90;99.90
16408;DHT22;8313;49.894;8.084;2024-01-30T13:43:25;5.90;99.90
16408;DHT22;8313;49.894;8.084;2024-01-30T13:45:51;6.00;99.90
16408;DHT22;8313;49.894;8.084;2024-01-30T13:48:17;6.00;99.90
16408;DHT22;8313;49.894;8.084;2024-01-30T13:50:43;6.00;99.90
16408;DHT22;8313;49.894;8.084;2024-01-30T13:53:08;6.10;99.90
16408;DHT22;8313;49.894;8.084;2024-01-30T13:55:34;6.10;99.90
16408;DHT22;8313;49.894;8.084;2024-01-30T13:58:00;6.10;99.90
16408;DHT22;8313;49.894;8.084;2024-01-30T14:00:27;6.10;99.90
16408;DHT22;8313;49.894;8.084;2024-01-30T14:02:53;6.10;99.90
16408;DHT22;8313;49.894;8.084;2024-01-30T14:05:20;6.10;99.90
16408;DHT22;8313;49.894;8.084;2024-01-30T14:07:47;6.10;99.90
16408;DHT22;8313;49.894;8.084;2024-01-30T14:10:13;6.10;99.90
16408;DHT22;8313;49.894;8.084;2024-01-30T14:12:39;6.10;99.90
16408;DHT22;8313;49.894;8.084;2024-01-30T14:15:05;6.20;99.90
16408;DHT22;8313;49.894;8.084;2024-01-30T14:17:30;6.20;99.90
16408;DHT22;8313;49.894;8.084;2024-01-30T14:19:56;6.20;99.90
16408;DHT22;8313;49.894;8.084;2024-01-30T14:22:22;6.20;99.90
16408;DHT22;8313;49.894;8.084;2024-01-30T14:24:47;6.20;99.90
16408;DHT22;8313;49.894;8.084;2024-01-30T14:27:13;6.30;99.90
16408;DHT22;8313;49.894;8.084;2024-01-30T14:29:39;6.30;99.90
16408;DHT22;8313;49.894;8.084;2024-01-30T14:32:05;6.30;99.90
16408;DHT22;8313;49.894;8.084;2024-01-30T14:34:30;6.40;99.90
16408;DHT22;8313;49.894;8.084;2024-01-30T14:36:56;6.40;99.90
16408;DHT22;8313;49.894;8.084;2024-01-30T14:39:22;6.40;99.90
16408;DHT22;8313;49.894;8.084;2024-01-30T14:41:48;6.40;99.90
16408;DHT22;8313;49.894;8.084;2024-01-30T14:44:13;6.40;99.90
16408;DHT22;8313;49.894;8.084;2024-01-30T14:46:40;6.50;99.90
16408;DHT22;8313;49.894;8.084;2024-01-30T14:49:05;6.50;99.90
16408;DHT22;8313;49.894;8.084;2024-01-30T14:51:33;6.50;99.90
16408;DHT22;8313;49.894;8.084;2024-01-30T14:53:59;6.60;99.90
16408;DHT22;8313;49.894;8.084;2024-01-30T14:56:26;6.60;99.90
16408;DHT22;8313;49.894;8.084;2024-01-30T14:58:52;6.60;99.90
16408;DHT22;8313;49.894;8.084;2024-01-30T15:01:17;6.60;99.90
16408;DHT22;8313;49.894;8.084;2024-01-30T15:03:44;6.60;99.90
16408;DHT22;8313;49.894;8.084;2024-01-30T15:06:12;6.60;99.90
16408;DHT22;8313;49.894;8.084;2024-01-30T15:08:38;6.60;99.90
16408;DHT22;8313;49.894;8.084;2024-01-30T15:11:04;6.60;99.90
16408;DHT22;8313;49.894;8.084;2024-01-30T15:13:30;6.60;99.90
16408;DHT22;8313;49.894;8.084;2024-01-30T15:15:56;6.60;99.90
16408;DHT22;8313;49.894;8.084;2024-01-30T15:18:22;6.60;99.90
16408;DHT22;8313;49.894;8.084;2024-01-30T15:20:49;6.60;99.90
16408;DHT22;8313;49.894;8.084;2024-01-30T15:23:14;6.60;99.90
16408;DHT22;8313;49.894;8.084;2024-01-30T15:25:41;6.60;99.90
16408;DHT22;8313;49.894;8.084;2024-01-30T15:28:07;6.60;99.90
16408;DHT22;8313;49.894;8.084;2024-01-30T15:30:35;6.60;99.90
16408;DHT22;8313;49.894;8.084;2024-01-30T15:33:00;6.60;99.90
16408;DHT22;8313;49.894;8.084;2024-01-30T15:35:27;6.60;99.90
16408;DHT22;8313;49.894;8.084;2024-01-30T15:37:53;6.60;99.90
16408;DHT22;8313;49.894;8.084;2024-01-30T15:40:19;6.70;99.90
16408;DHT22;8313;49.894;8.084;2024-01-30T15:42:44;6.70;99.90
16408;DHT22;8313;49.894;8.084;2024-01-30T15:45:10;6.70;99.90
16408;DHT22;8313;49.894;8.084;2024-01-30T15:47:36;6.70;99.90
16408;DHT22;8313;49.894;8.084;2024-01-30T15:50:04;6.70;99.90
16408;DHT22;8313;49.894;8.084;2024-01-30T15:52:30;6.70;99.90
16408;DHT22;8313;49.894;8.084;2024-01-30T15:54:55;6.70;99.90
16408;DHT22;8313;49.894;8.084;2024-01-30T15:57:21;6.70;99.90
16408;DHT22;8313;49.894;8.084;2024-01-30T15:59:47;6.70;99.90
16408;DHT22;8313;49.894;8.084;2024-01-30T16:02:12;6.70;99.90